Time;durP1;ratioP1;P1;durP2;ratioP2;P2;SDS_P1;SDS_P2;PMS_P1;PMS_P2;Temp;Humidity;BMP_temperature;BMP_pressure;BME280_temperature;BME280_humidity;BME280_pressure;Samples;Min_cycle;Max_cycle;Signal;HPM_P1;HPM_P2
2021/07/09 00:02:12;;;;;;;0.70;0.20;;;13.10;99.90;;;13.46;100.00;95389.00;2140619;58;27010;-51
2021/07/09 00:04:59;;;;;;;0.00;0.00;;;13.20;99.90;;;13.58;100.00;95382.00;2378988;56;27362;-52
2021/07/09 00:07:45;;;;;;;0.40;0.30;;;13.30;99.90;;;13.60;100.00;95381.00;2161537;58;26738;-51
2021/07/09 00:10:32;;;;;;;0.00;0.00;;;13.30;99.90;;;13.62;100.00;95381.00;2370833;56;26661;-51
2021/07/09 00:13:18;;;;;;;0.00;0.00;;;13.30;99.90;;;13.57;100.00;95376.00;2398441;56;26808;-51
2021/07/09 00:24:56;;;;;;;0.10;0.10;;;13.30;99.90;;;13.81;100.00;95351.00;2393578;54;33985;-52
2021/07/09 00:27:42;;;;;;;0.08;0.08;;;13.40;99.90;;;13.77;100.00;95377.00;2380306;55;26692;-51
2021/07/09 00:30:29;;;;;;;0.15;0.08;;;13.40;99.90;;;13.79;100.00;95372.00;2148704;56;27170;-51
2021/07/09 00:33:15;;;;;;;0.20;0.20;;;13.50;99.90;;;13.86;100.00;95376.00;2360387;55;26885;-52
2021/07/09 00:36:02;;;;;;;0.00;0.00;;;13.50;99.90;;;13.86;100.00;95370.00;2158023;56;26903;-51
2021/07/09 00:38:48;;;;;;;0.00;0.00;;;13.50;99.90;;;13.78;100.00;95367.00;2375254;55;27274;-52
2021/07/09 00:44:31;;;;;;;0.00;0.00;;;13.50;99.90;;;14.02;100.00;95343.00;2438763;54;34305;-51
2021/07/09 00:47:18;;;;;;;0.00;0.00;;;13.50;99.90;;;13.89;100.00;95354.00;2223776;55;27152;-52
2021/07/09 00:53:04;;;;;;;0.00;0.00;;;13.50;99.90;;;13.95;100.00;95332.00;2329630;57;34410;-52
2021/07/09 00:55:51;;;;;;;0.00;0.00;;;13.50;99.90;;;13.89;100.00;95349.00;2099890;59;26715;-51
2021/07/09 00:58:37;;;;;;;0.00;0.00;;;13.50;99.90;;;13.86;100.00;95349.00;2068590;59;26875;-51
2021/07/09 01:01:24;;;;;;;0.10;0.10;;;13.50;99.90;;;13.93;100.00;95336.00;2315226;58;26654;-51
2021/07/09 01:04:11;;;;;;;0.00;0.00;;;13.50;99.90;;;13.93;100.00;95334.00;2100358;58;26922;-52
2021/07/09 01:06:57;;;;;;;0.00;0.00;;;13.50;99.90;;;13.90;100.00;95330.00;2319508;58;26648;-52
2021/07/09 01:12:43;;;;;;;0.00;0.00;;;13.40;99.90;;;14.06;100.00;95307.00;2451201;54;33898;-51
2021/07/09 01:18:27;;;;;;;0.00;0.00;;;13.50;99.90;;;14.08;100.00;95299.00;2337037;55;34318;-51
2021/07/09 01:21:14;;;;;;;0.10;0.10;;;13.50;99.90;;;14.03;100.00;95308.00;2306985;57;26657;-52
2021/07/09 01:24:03;;;;;;;0.32;0.13;;;13.50;99.90;;;13.98;100.00;95311.00;2103474;58;26184;-51
2021/07/09 01:29:47;;;;;;;0.00;0.00;;;13.50;99.90;;;14.04;100.00;95289.00;2408349;54;33864;-51
2021/07/09 01:32:33;;;;;;;0.00;0.00;;;13.50;99.90;;;13.92;100.00;95306.00;2175053;56;26975;-51
2021/07/09 01:35:21;;;;;;;0.00;0.00;;;13.40;99.90;;;13.78;100.00;95305.00;2375160;55;27068;-52
2021/07/09 01:38:08;;;;;;;0.00;0.00;;;13.40;99.90;;;13.76;100.00;95301.00;2157242;56;27455;-52
2021/07/09 01:40:55;;;;;;;0.00;0.00;;;13.40;99.90;;;13.77;100.00;95298.00;2181190;55;26755;-51
2021/07/09 01:43:42;;;;;;;0.10;0.10;;;13.30;99.90;;;13.63;100.00;95304.00;2407807;55;26642;-52
2021/07/09 01:46:28;;;;;;;0.00;0.00;;;13.30;99.90;;;13.59;100.00;95295.00;2168575;57;26255;-51
2021/07/09 01:49:14;;;;;;;0.00;0.00;;;13.30;99.90;;;13.50;100.00;95288.00;2361738;56;26998;-51
2021/07/09 01:52:02;;;;;;;0.10;0.10;;;13.20;99.90;;;13.53;100.00;95285.00;2129789;56;27418;-52
2021/07/09 01:54:49;;;;;;;0.10;0.10;;;13.20;99.90;;;13.52;100.00;95283.00;2347535;56;26878;-52
2021/07/09 01:57:35;;;;;;;0.70;0.20;;;13.20;99.90;;;13.47;100.00;95286.00;2140934;56;26820;-52
2021/07/09 02:00:25;;;;;;;0.00;0.00;;;13.30;99.90;;;13.55;100.00;95288.00;2348979;56;26715;-51
2021/07/09 02:03:12;;;;;;;0.00;0.00;;;13.30;99.90;;;13.62;100.00;95299.00;2139931;56;26135;-52
2021/07/09 02:05:58;;;;;;;0.00;0.00;;;13.30;99.90;;;13.61;100.00;95303.00;2345510;56;27492;-52
2021/07/09 02:08:45;;;;;;;0.00;0.00;;;13.30;99.90;;;13.62;100.00;95294.00;2129275;56;26697;-51
2021/07/09 02:11:31;;;;;;;0.00;0.00;;;13.30;99.90;;;13.60;100.00;95304.00;2334658;56;27318;-53
2021/07/09 02:14:18;;;;;;;0.00;0.00;;;13.30;99.90;;;13.66;100.00;95311.00;2154260;56;26842;-52
2021/07/09 02:17:09;;;;;;;0.00;0.00;;;13.30;99.90;;;13.63;100.00;95320.00;2380913;56;26716;-52
2021/07/09 02:22:54;;;;;;;0.00;0.00;;;13.30;99.90;;;13.70;100.00;95294.00;2444706;53;34834;-52
2021/07/09 02:28:39;;;;;;;0.00;0.00;;;13.20;99.90;;;13.64;100.00;95287.00;2361247;55;33974;-52
2021/07/09 02:34:22;;;;;;;0.00;0.00;;;13.20;99.90;;;13.66;100.00;95300.00;2388541;55;33765;-52
2021/07/09 02:37:11;;;;;;;0.00;0.00;;;13.20;99.90;;;13.50;100.00;95317.00;2365397;56;27239;-51
2021/07/09 02:42:58;;;;;;;0.00;0.00;;;13.20;99.90;;;13.56;100.00;95308.00;2340910;56;33337;-52
2021/07/09 02:45:44;;;;;;;0.00;0.00;;;13.20;99.90;;;13.49;100.00;95328.00;2136821;56;26834;-51
2021/07/09 02:48:31;;;;;;;0.00;0.00;;;13.10;99.90;;;13.43;100.00;95327.00;2342309;56;26770;-52
2021/07/09 02:51:17;;;;;;;0.00;0.00;;;13.10;99.90;;;13.41;100.00;95324.00;2125205;57;27198;-52
2021/07/09 02:54:03;;;;;;;0.00;0.00;;;13.00;99.90;;;13.33;100.00;95319.00;2152028;56;26846;-52
2021/07/09 02:59:46;;;;;;;0.00;0.00;;;13.10;99.90;;;13.44;100.00;95307.00;2355301;55;34335;-52
2021/07/09 03:02:32;;;;;;;0.00;0.00;;;13.00;99.90;;;13.28;100.00;95315.00;2144645;56;26803;-52
2021/07/09 03:05:19;;;;;;;0.00;0.00;;;13.00;99.90;;;13.24;100.00;95314.00;2366309;56;26319;-52
2021/07/09 03:08:06;;;;;;;0.00;0.00;;;13.00;99.90;;;13.30;100.00;95316.00;2372583;56;26615;-52
2021/07/09 03:10:53;;;;;;;0.00;0.00;;;13.00;99.90;;;13.26;100.00;95321.00;2164794;56;27035;-52
2021/07/09 03:13:39;;;;;;;0.00;0.00;;;12.90;99.90;;;13.18;100.00;95323.00;2364041;56;26847;-52
2021/07/09 03:16:26;;;;;;;0.00;0.00;;;12.90;99.90;;;13.15;100.00;95324.00;2162021;56;27543;-51
2021/07/09 03:19:12;;;;;;;0.00;0.00;;;12.80;99.90;;;13.14;100.00;95329.00;2156787;57;27268;-51
2021/07/09 03:21:59;;;;;;;0.00;0.00;;;12.80;99.90;;;13.14;100.00;95337.00;2179551;56;26635;-52
2021/07/09 03:24:45;;;;;;;0.00;0.00;;;12.90;99.90;;;13.16;100.00;95332.00;2189292;56;27067;-52
2021/07/09 03:27:31;;;;;;;0.00;0.00;;;12.90;99.90;;;13.18;100.00;95338.00;2190080;56;26767;-51
2021/07/09 03:33:14;;;;;;;0.00;0.00;;;12.80;99.90;;;13.24;100.00;95317.00;2476022;53;34082;-53
2021/07/09 03:36:00;;;;;;;0.00;0.00;;;12.90;99.90;;;13.17;100.00;95337.00;2229096;55;27032;-52
2021/07/09 03:38:47;;;;;;;0.00;0.00;;;12.90;99.90;;;13.19;100.00;95343.00;2235052;54;26739;-52
2021/07/09 03:41:33;;;;;;;0.00;0.00;;;12.90;99.90;;;13.23;100.00;95349.00;2239491;55;26753;-52
2021/07/09 03:44:20;;;;;;;0.00;0.00;;;12.90;99.90;;;13.22;100.00;95350.00;2467287;55;26865;-52
2021/07/09 03:47:06;;;;;;;0.00;0.00;;;12.90;99.90;;;13.18;100.00;95352.00;2238478;55;26820;-50
2021/07/09 03:49:52;;;;;;;0.00;0.00;;;12.90;99.90;;;13.19;100.00;95361.00;2234329;55;27260;-52
2021/07/09 03:52:38;;;;;;;0.00;0.00;;;12.80;99.90;;;13.11;100.00;95356.00;2218757;54;27224;-51
2021/07/09 03:55:25;;;;;;;0.00;0.00;;;12.80;99.90;;;13.08;100.00;95354.00;2186424;55;27234;-52
2021/07/09 03:58:11;;;;;;;0.00;0.00;;;12.80;99.90;;;13.13;100.00;95370.00;2185927;55;26174;-52
2021/07/09 04:00:58;;;;;;;0.00;0.00;;;12.80;99.90;;;13.12;100.00;95371.00;2184118;55;26872;-52
2021/07/09 04:03:44;;;;;;;0.03;0.03;;;12.80;99.90;;;13.06;100.00;95375.00;2182812;55;26922;-52
2021/07/09 04:06:31;;;;;;;0.00;0.00;;;12.80;99.90;;;13.09;100.00;95374.00;2177870;55;26183;-52
2021/07/09 04:09:17;;;;;;;0.00;0.00;;;12.80;99.90;;;13.07;100.00;95381.00;2177890;55;26411;-53
2021/07/09 04:12:05;;;;;;;0.00;0.00;;;12.80;99.90;;;13.11;100.00;95377.00;2170121;55;26603;-52
2021/07/09 04:14:51;;;;;;;0.00;0.00;;;12.80;99.90;;;13.08;100.00;95388.00;2385690;55;26203;-52
2021/07/09 04:17:38;;;;;;;0.00;0.00;;;12.80;99.90;;;13.12;100.00;95387.00;2171024;55;27348;-52
2021/07/09 04:20:24;;;;;;;0.00;0.00;;;12.80;99.90;;;13.12;100.00;95385.00;2427936;55;26709;-53
2021/07/09 04:23:11;;;;;;;0.00;0.00;;;12.80;99.90;;;13.12;100.00;95385.00;2454031;55;27458;-52
2021/07/09 04:25:57;;;;;;;0.00;0.00;;;12.80;99.90;;;13.07;100.00;95384.00;2236514;55;26666;-51
2021/07/09 04:28:44;;;;;;;0.00;0.00;;;12.80;99.90;;;13.10;100.00;95397.00;2239997;54;27421;-52
2021/07/09 04:31:31;;;;;;;0.00;0.00;;;12.80;99.90;;;13.10;100.00;95391.00;2239044;55;26177;-51
2021/07/09 04:34:18;;;;;;;0.00;0.00;;;12.80;99.90;;;13.19;100.00;95390.00;2238829;55;26586;-52
2021/07/09 04:37:08;;;;;;;0.00;0.00;;;12.80;99.90;;;13.17;100.00;95397.00;2213061;56;26657;-51
2021/07/09 04:39:56;;;;;;;0.00;0.00;;;12.90;99.90;;;13.26;100.00;95389.00;2439960;54;26786;-52
2021/07/09 04:42:43;;;;;;;0.00;0.00;;;12.90;99.90;;;13.23;100.00;95387.00;2197396;55;26709;-51
2021/07/09 04:45:29;;;;;;;0.00;0.00;;;13.00;99.90;;;13.32;100.00;95390.00;2430757;55;26260;-53
2021/07/09 04:51:14;;;;;;;0.00;0.00;;;13.00;99.90;;;13.46;100.00;95361.00;2360592;55;34541;-52
2021/07/09 04:54:00;;;;;;;0.00;0.00;;;13.10;99.90;;;13.39;100.00;95381.00;2186155;56;26270;-53
2021/07/09 04:56:47;;;;;;;0.00;0.00;;;13.10;99.90;;;13.49;100.00;95386.00;2396455;55;26988;-51
2021/07/09 04:59:33;;;;;;;0.00;0.00;;;13.20;99.90;;;13.49;100.00;95381.00;2198485;56;26632;-51
2021/07/09 05:02:20;;;;;;;0.00;0.00;;;13.20;99.90;;;13.58;100.00;95380.00;2419858;55;26852;-52
2021/07/09 05:05:12;;;;;;;0.00;0.00;;;13.20;99.90;;;13.54;100.00;95379.00;2208877;56;26715;-51
2021/07/09 05:07:59;;;;;;;0.00;0.00;;;13.30;99.90;;;13.60;100.00;95386.00;2209837;56;26719;-51
2021/07/09 05:10:45;;;;;;;0.00;0.00;;;13.40;99.90;;;13.70;100.00;95392.00;2429917;55;26590;-52
2021/07/09 05:13:32;;;;;;;0.00;0.00;;;13.40;99.90;;;13.72;100.00;95382.00;2208088;56;26982;-52
2021/07/09 05:16:19;;;;;;;0.00;0.00;;;13.50;99.90;;;13.86;100.00;95384.00;2432743;55;27047;-52
2021/07/09 05:19:05;;;;;;;0.00;0.00;;;13.60;99.90;;;13.91;100.00;95384.00;2210342;56;26937;-52
2021/07/09 05:21:52;;;;;;;0.10;0.10;;;13.70;99.90;;;14.08;100.00;95385.00;2432627;55;26789;-52
2021/07/09 05:24:38;;;;;;;0.00;0.00;;;13.80;99.90;;;14.19;100.00;95384.00;2211403;56;26130;-52
2021/07/09 05:27:27;;;;;;;0.00;0.00;;;13.90;99.90;;;14.31;100.00;95384.00;2432160;55;26945;-51
2021/07/09 05:33:10;;;;;;;0.10;0.10;;;14.00;99.90;;;14.66;100.00;95372.00;2396499;54;33741;-52
2021/07/09 05:35:57;;;;;;;0.10;0.10;;;14.30;99.90;;;14.72;100.00;95387.00;2172620;55;26684;-52
2021/07/09 05:38:43;;;;;;;0.10;0.10;;;14.40;99.90;;;14.84;100.00;95387.00;2379456;56;26664;-51
2021/07/09 05:44:26;;;;;;;0.00;0.00;;;14.50;99.90;;;15.11;100.00;95380.00;2400021;54;34319;-51
2021/07/09 05:47:13;;;;;;;0.00;0.00;;;14.50;99.90;;;14.74;100.00;95391.00;2163405;56;26727;-52
2021/07/09 05:50:00;;;;;;;0.00;0.00;;;14.40;99.90;;;14.67;100.00;95392.00;2371790;56;27406;-52
2021/07/09 05:58:39;;;;;;;0.00;0.00;;;14.60;99.90;;;15.04;100.00;95377.00;2350209;56;34573;-50
2021/07/09 06:04:23;;;;;;;0.00;0.00;;;14.80;99.90;;;15.39;100.00;95391.00;2424345;54;33735;-51
2021/07/09 06:07:10;;;;;;;0.00;0.00;;;15.10;99.90;;;15.59;100.00;95403.00;2196096;56;27271;-52
2021/07/09 06:12:54;;;;;;;0.00;0.00;;;15.70;99.90;;;16.35;100.00;95387.00;2459285;54;33606;-51
2021/07/09 06:15:40;;;;;;;0.00;0.00;;;15.70;99.90;;;16.20;100.00;95403.00;2205748;55;26819;-51
2021/07/09 06:18:26;;;;;;;0.00;0.00;;;15.70;99.90;;;15.99;100.00;95409.00;2210712;56;26687;-51
2021/07/09 06:21:13;;;;;;;0.00;0.00;;;15.40;99.90;;;15.66;100.00;95405.00;2434007;55;27403;-51
2021/07/09 06:26:55;;;;;;;0.00;0.00;;;15.10;99.90;;;15.02;100.00;95426.00;2480123;53;33419;-51
2021/07/09 06:32:37;;;;;;;0.10;0.10;;;14.50;99.90;;;14.78;100.00;95422.00;2440146;54;33119;-51
2021/07/09 06:35:28;;;;;;;0.00;0.00;;;14.30;99.90;;;14.50;100.00;95434.00;2458351;55;27474;-51
2021/07/09 06:38:15;;;;;;;0.00;0.00;;;14.30;99.90;;;14.58;100.00;95444.00;2234498;55;26762;-51
2021/07/09 06:41:01;;;;;;;0.00;0.00;;;14.20;99.90;;;14.40;100.00;95447.00;2468436;54;26817;-51
2021/07/09 06:43:48;;;;;;;0.00;0.00;;;14.20;99.90;;;14.44;100.00;95445.00;2237934;55;26672;-51
2021/07/09 06:46:34;;;;;;;0.03;0.03;;;14.10;99.90;;;14.31;100.00;95453.00;2466019;54;27816;-51
2021/07/09 06:49:20;;;;;;;0.20;0.10;;;14.10;99.90;;;14.41;100.00;95462.00;2237035;55;26579;-51
2021/07/09 06:52:08;;;;;;;0.00;0.00;;;14.00;99.90;;;14.25;100.00;95460.00;2466065;54;26781;-51
2021/07/09 06:57:52;;;;;;;0.10;0.10;;;13.70;99.90;;;14.07;100.00;95456.00;2440602;54;34122;-51
2021/07/09 07:00:39;;;;;;;0.10;0.10;;;13.70;99.90;;;13.94;100.00;95479.00;2187968;55;26123;-52
2021/07/09 07:06:22;;;;;;;0.03;0.03;;;13.80;99.90;;;14.18;100.00;95471.00;2398300;54;33883;-52
2021/07/09 07:09:08;;;;;;;0.00;0.00;;;13.90;99.90;;;14.27;100.00;95489.00;2164428;56;26730;-51
2021/07/09 07:11:57;;;;;;;0.10;0.10;;;14.00;99.90;;;14.33;100.00;95502.00;2171426;55;26174;-51
2021/07/09 07:14:43;;;;;;;0.00;0.00;;;14.00;99.90;;;14.26;100.00;95498.00;2208054;56;26640;-51
2021/07/09 07:17:30;;;;;;;0.00;0.00;;;14.00;99.90;;;14.31;100.00;95495.00;2184259;56;26240;-52
2021/07/09 07:20:17;;;;;;;0.05;0.05;;;13.90;99.90;;;14.11;100.00;95490.00;2213239;55;27103;-51
2021/07/09 07:23:04;;;;;;;0.00;0.00;;;13.70;99.90;;;14.07;100.00;95504.00;2434890;55;26711;-51
2021/07/09 07:25:51;;;;;;;0.00;0.00;;;13.80;99.90;;;14.03;100.00;95499.00;2209359;56;26973;-52
2021/07/09 07:28:37;;;;;;;0.30;0.10;;;13.70;99.90;;;13.97;100.00;95499.00;2209250;56;26783;-51
2021/07/09 07:31:23;;;;;;;0.00;0.00;;;13.80;99.90;;;14.12;100.00;95506.00;2210329;56;26658;-52
2021/07/09 07:37:08;;;;;;;0.00;0.00;;;13.90;99.90;;;14.32;100.00;95492.00;2377200;55;33975;-52
2021/07/09 07:42:51;;;;;;;0.00;0.00;;;14.00;99.90;;;14.49;100.00;95497.00;2388146;55;34095;-52
2021/07/09 07:45:38;;;;;;;0.00;0.00;;;14.10;99.90;;;14.39;100.00;95512.00;2361311;56;26624;-51
2021/07/09 07:48:24;;;;;;;1.50;1.12;;;14.20;99.90;;;14.59;100.00;95515.00;2140456;57;26638;-52
2021/07/09 07:51:10;;;;;;;1.75;1.27;;;14.20;99.90;;;14.54;100.00;95518.00;2134111;57;27714;-52
2021/07/09 07:53:57;;;;;;;1.77;1.10;;;14.20;99.90;;;14.45;100.00;95510.00;2339659;57;27169;-52
2021/07/09 07:59:42;;;;;;;1.60;1.40;;;14.10;99.90;;;14.51;100.00;95491.00;2401436;55;33775;-51
2021/07/09 08:05:26;;;;;;;1.80;1.40;;;14.10;99.90;;;14.49;100.00;95493.00;2307402;57;34260;-51
2021/07/09 08:11:08;;;;;;;1.85;1.70;;;14.10;99.90;;;14.54;100.00;95501.00;2403250;55;34138;-51
2021/07/09 08:13:54;;;;;;;4.05;3.28;;;14.00;99.90;;;14.26;100.00;95527.00;2163783;56;27302;-50
2021/07/09 08:19:38;;;;;;;3.20;1.80;;;14.00;99.90;;;14.29;100.00;95511.00;2379511;55;34256;-51
2021/07/09 08:22:24;;;;;;;1.90;1.70;;;13.90;99.90;;;14.14;100.00;95531.00;2381010;55;26810;-51
2021/07/09 08:25:14;;;;;;;2.10;1.90;;;13.80;99.90;;;14.06;100.00;95536.00;2180622;56;26922;-51
2021/07/09 08:28:00;;;;;;;1.90;1.80;;;13.80;99.90;;;14.03;100.00;95541.00;2410367;55;27154;-52
2021/07/09 08:30:46;;;;;;;2.10;1.83;;;13.80;99.90;;;14.10;100.00;95535.00;2172599;56;26902;-53
2021/07/09 08:33:32;;;;;;;2.12;1.92;;;13.80;99.90;;;14.03;100.00;95535.00;2393455;55;26107;-52
2021/07/09 08:39:17;;;;;;;2.35;2.15;;;13.80;99.90;;;14.07;100.00;95525.00;2430904;54;35190;-55
2021/07/09 08:42:04;;;;;;;2.42;2.22;;;13.70;99.90;;;13.87;100.00;95546.00;2171634;55;26115;-52
2021/07/09 08:44:50;;;;;;;1.47;1.37;;;13.60;99.90;;;13.79;100.00;95543.00;2376331;55;27463;-53
2021/07/09 08:47:37;;;;;;;0.03;0.03;;;13.60;99.90;;;13.83;100.00;95550.00;2167788;55;26993;-53
2021/07/09 08:50:23;;;;;;;0.00;0.00;;;13.60;99.90;;;13.89;100.00;95554.00;2412659;54;27323;-52
2021/07/09 08:53:09;;;;;;;0.20;0.20;;;13.60;99.90;;;13.92;100.00;95555.00;2176392;55;26893;-53
2021/07/09 08:55:55;;;;;;;0.00;0.00;;;13.70;99.90;;;13.89;100.00;95554.00;2396072;55;26873;-52
2021/07/09 08:58:42;;;;;;;0.62;0.30;;;13.60;99.90;;;13.84;100.00;95570.00;2396042;55;27017;-52
2021/07/09 09:01:28;;;;;;;0.20;0.20;;;13.50;99.90;;;13.82;100.00;95572.00;2179738;54;26812;-52
2021/07/09 09:04:15;;;;;;;0.33;0.30;;;13.40;99.90;;;13.65;100.00;95575.00;2421738;55;26825;-52
2021/07/09 09:07:04;;;;;;;0.80;0.22;;;13.50;99.90;;;13.80;100.00;95571.00;2203463;56;26646;-51
2021/07/09 09:13:05;;;;;;;0.10;0.10;;;13.50;99.90;;;13.84;100.00;95562.00;2394242;55;33727;-51
2021/07/09 09:16:05;;;;;;;0.00;0.00;;;13.50;99.90;;;13.76;100.00;95581.00;2421710;55;26880;-51
2021/07/09 09:18:57;;;;;;;0.00;0.00;;;13.50;99.90;;;13.79;100.00;95580.00;2209447;56;26711;-52
2021/07/09 09:24:41;;;;;;;0.10;0.10;;;13.60;99.90;;;13.94;100.00;95568.00;2404492;55;34094;-51
2021/07/09 09:30:26;;;;;;;0.60;0.47;;;13.60;99.90;;;14.00;100.00;95575.00;2445805;54;34285;-50
2021/07/09 09:36:10;;;;;;;0.20;0.13;;;13.60;99.90;;;13.80;100.00;95577.00;2408860;54;34493;-51
2021/07/09 09:38:59;;;;;;;0.30;0.30;;;13.40;99.90;;;13.67;100.00;95602.00;2375080;56;26726;-52
2021/07/09 09:42:05;;;;;;;0.00;0.00;;;13.50;99.90;;;13.76;100.00;95607.00;2159395;57;26766;-52
2021/07/09 09:44:59;;;;;;;0.30;0.30;;;13.40;99.90;;;13.67;100.00;95597.00;2432056;55;26554;-52
2021/07/09 09:47:46;;;;;;;0.35;0.35;;;13.50;99.90;;;13.76;100.00;95618.00;2205798;56;26644;-52
2021/07/09 09:53:38;;;;;;;0.10;0.10;;;13.50;99.90;;;13.88;100.00;95593.00;2455750;54;33528;-52
2021/07/09 09:56:36;;;;;;;0.00;0.00;;;13.60;99.90;;;13.92;100.00;95613.00;2194768;55;26969;-52
2021/07/09 10:02:23;;;;;;;0.00;0.00;;;13.70;99.90;;;14.06;100.00;95590.00;2416635;55;34077;-52
2021/07/09 10:08:14;;;;;;;0.00;0.00;;;13.70;99.90;;;14.13;100.00;95582.00;2410486;55;33574;-53
2021/07/09 10:11:03;;;;;;;0.03;0.03;;;13.70;99.90;;;13.99;100.00;95613.00;2197355;55;27373;-52
2021/07/09 10:13:49;;;;;;;0.13;0.13;;;13.70;99.90;;;13.97;100.00;95623.00;2409556;55;26667;-53
2021/07/09 10:19:38;;;;;;;0.50;0.20;;;13.70;99.90;;;14.13;100.00;95593.00;2313188;57;34147;-52
2021/07/09 10:25:23;;;;;;;0.20;0.20;;;13.80;99.90;;;14.23;100.00;95588.00;2399707;55;34014;-53
2021/07/09 10:28:11;;;;;;;0.05;0.05;;;13.90;99.90;;;14.23;100.00;95614.00;2371833;56;27223;-52
2021/07/09 10:33:54;;;;;;;0.20;0.20;;;14.00;99.90;;;14.43;100.00;95589.00;2344234;56;34296;-53
2021/07/09 10:39:48;;;;;;;0.08;0.08;;;14.10;99.90;;;14.69;100.00;95589.00;2395769;54;33122;-53
2021/07/09 10:42:39;;;;;;;0.20;0.20;;;14.20;99.90;;;14.54;100.00;95616.00;2374952;55;26844;-53
2021/07/09 10:45:27;;;;;;;0.10;0.10;;;14.20;99.90;;;14.54;100.00;95616.00;2174926;56;26724;-52
2021/07/09 10:48:15;;;;;;;0.00;0.00;;;14.20;99.90;;;14.52;100.00;95614.00;2387474;56;27111;-53
2021/07/09 10:51:02;;;;;;;0.43;0.43;;;14.30;99.90;;;14.67;100.00;95618.00;2150048;57;26746;-53
2021/07/09 10:53:48;;;;;;;0.17;0.17;;;14.40;99.90;;;14.74;100.00;95610.00;2361706;57;26812;-52
2021/07/09 10:56:35;;;;;;;0.10;0.10;;;14.40;99.90;;;14.73;100.00;95612.00;2165000;56;26826;-52
2021/07/09 10:59:22;;;;;;;0.20;0.13;;;14.30;99.90;;;14.73;100.00;95617.00;2181271;56;27067;-52
2021/07/09 11:02:08;;;;;;;0.17;0.17;;;14.40;99.90;;;14.75;100.00;95610.00;2183793;56;27400;-52
2021/07/09 11:04:54;;;;;;;0.05;0.05;;;14.40;99.90;;;14.81;100.00;95616.00;2188305;56;27609;-53
2021/07/09 11:07:41;;;;;;;0.00;0.00;;;14.40;99.90;;;14.85;100.00;95616.00;2194644;56;26734;-52
2021/07/09 11:11:00;;;;;;;1.17;0.62;;;14.50;99.90;;;14.92;100.00;95616.00;2193554;55;26274;-52
2021/07/09 11:13:52;;;;;;;0.40;0.40;;;14.50;99.90;;;14.87;100.00;95613.00;2193504;56;26781;-51
2021/07/09 11:16:41;;;;;;;0.22;0.22;;;14.70;99.90;;;15.16;100.00;95621.00;2185602;56;27702;-52
2021/07/09 11:19:32;;;;;;;0.30;0.30;;;14.90;99.90;;;15.46;100.00;95611.00;2408002;56;26671;-51
2021/07/09 11:25:20;;;;;;;0.10;0.10;;;15.30;99.90;;;16.04;100.00;95595.00;2442260;54;34027;-52
2021/07/09 11:28:07;;;;;;;0.00;0.00;;;15.60;99.90;;;16.12;100.00;95600.00;2203105;55;26675;-52
2021/07/09 11:30:58;;;;;;;0.05;0.05;;;15.70;99.90;;;16.10;100.00;95604.00;2426776;54;27183;-52
2021/07/09 11:36:58;;;;;;;1.55;0.88;;;16.10;99.90;;;16.81;100.00;95589.00;2376847;55;34451;-52
2021/07/09 11:39:47;;;;;;;0.30;0.30;;;16.40;99.90;;;16.95;100.00;95582.00;2177802;56;26936;-51
2021/07/09 11:45:30;;;;;;;0.40;0.37;;;17.00;99.90;;;18.07;100.00;95576.00;2409024;55;33677;-51
2021/07/09 11:48:16;;;;;;;0.20;0.20;;;17.70;99.90;;;18.16;100.00;95575.00;2351620;56;26786;-51
2021/07/09 11:51:07;;;;;;;0.43;0.43;;;18.00;99.90;;;18.33;100.00;95580.00;2109239;58;27467;-53
2021/07/09 11:54:07;;;;;;;0.25;0.25;;;18.00;99.90;;;18.47;100.00;95570.00;2323066;57;26673;-51
2021/07/09 11:56:56;;;;;;;0.30;0.30;;;18.20;99.90;;;18.61;100.00;95570.00;2131977;57;27510;-52
2021/07/09 11:59:45;;;;;;;0.20;0.13;;;18.30;99.90;;;18.73;100.00;95571.00;2132567;57;26741;-51
2021/07/09 12:02:31;;;;;;;0.62;0.30;;;18.40;99.90;;;18.73;100.00;95576.00;2132634;57;26670;-52
2021/07/09 12:05:20;;;;;;;0.10;0.10;;;18.40;99.90;;;18.82;100.00;95565.00;2336057;57;26695;-52
2021/07/09 12:08:09;;;;;;;3.08;0.37;;;18.10;99.90;;;18.40;100.00;95563.00;2130164;57;26891;-51
2021/07/09 12:11:04;;;;;;;0.08;0.08;;;18.00;99.90;;;18.43;100.00;95563.00;2129780;57;26793;-52
2021/07/09 12:17:02;;;;;;;0.28;0.28;;;18.90;99.90;;;19.69;100.00;95556.00;2326765;57;34367;-52
2021/07/09 12:23:02;;;;;;;0.20;0.20;;;20.10;99.90;;;19.94;100.00;95553.00;2293814;57;34371;-51
2021/07/09 12:25:54;;;;;;;0.20;0.20;;;19.90;99.90;;;20.03;100.00;95558.00;2083631;58;26748;-51
2021/07/09 12:28:41;;;;;;;0.57;0.52;;;19.80;99.90;;;19.75;100.00;95555.00;2366554;57;27294;-52
2021/07/09 12:34:24;;;;;;;0.70;0.60;;;20.00;99.90;;;19.91;100.00;95547.00;2387721;55;33770;-50
2021/07/09 12:37:11;;;;;;;0.32;0.32;;;19.50;99.90;;;19.34;100.00;95553.00;2339173;57;26896;-51
2021/07/09 12:43:17;;;;;;;0.20;0.10;;;19.30;99.90;;;20.26;100.00;95546.00;2528063;52;32826;-52
2021/07/09 12:49:02;;;;;;;0.45;0.45;;;20.20;99.90;;;20.08;100.00;95542.00;2439641;55;34191;-52
2021/07/09 12:51:49;;;;;;;0.22;0.22;;;19.50;99.90;;;19.48;100.00;95544.00;2418029;55;26724;-52
2021/07/09 12:54:36;;;;;;;0.08;0.08;;;18.90;99.90;;;19.00;100.00;95544.00;2210058;56;26724;-52
2021/07/09 12:57:25;;;;;;;0.20;0.20;;;19.00;99.90;;;19.37;100.00;95541.00;2211058;56;26765;-52
2021/07/09 13:00:16;;;;;;;0.22;0.22;;;19.10;99.90;;;19.42;100.00;95547.00;2432566;55;27340;-51
2021/07/09 13:03:02;;;;;;;0.68;0.37;;;19.20;99.90;;;19.73;100.00;95541.00;2433059;55;27276;-52
2021/07/09 13:06:05;;;;;;;0.30;0.30;;;19.80;99.90;;;20.38;100.00;95540.00;2230771;55;27173;-51
2021/07/09 13:11:49;;;;;;;0.10;0.10;;;21.30;99.90;;;21.00;100.00;95517.00;2464342;53;34386;-51
2021/07/09 13:17:35;;;;;;;0.47;0.47;;;19.60;99.90;;;19.82;100.00;95526.00;2479789;53;33678;-51
2021/07/09 13:20:22;;;;;;;0.20;0.20;;;19.90;99.90;;;20.26;100.00;95528.00;2237098;54;26864;-51
2021/07/09 13:23:14;;;;;;;0.30;0.30;;;19.90;99.90;;;20.16;100.00;95530.00;2468056;54;27238;-52
2021/07/09 13:26:11;;;;;;;0.00;0.00;;;19.80;99.90;;;20.04;100.00;95522.00;2268449;54;26574;-51
2021/07/09 13:28:57;;;;;;;0.10;0.10;;;19.50;99.90;;;19.66;100.00;95517.00;2268897;55;26888;-52
2021/07/09 13:34:42;;;;;;;2.62;2.05;;;19.80;99.90;;;20.47;100.00;95517.00;2377748;55;33848;-52
2021/07/09 13:43:23;;;;;;;3.35;1.90;;;20.40;99.90;;;20.27;100.00;95521.00;2404398;55;34371;-51
2021/07/09 13:49:07;;;;;;;1.70;1.60;;;19.60;99.90;;;19.78;100.00;95527.00;2442139;55;33589;-50
2021/07/09 13:51:53;;;;;;;2.00;1.80;;;19.40;99.90;;;19.83;100.00;95531.00;2203809;56;26798;-50
2021/07/09 13:54:39;;;;;;;2.50;1.90;;;19.40;99.90;;;19.69;100.00;95527.00;2400717;55;27697;-50
2021/07/09 13:57:26;;;;;;;2.62;2.10;;;19.90;99.90;;;20.27;100.00;95530.00;2197713;56;26817;-51
2021/07/09 14:06:07;;;;;;;2.25;1.55;;;21.10;99.90;;;22.15;100.00;95510.00;2418036;54;34173;-51
2021/07/09 14:11:51;;;;;;;2.50;1.90;;;21.90;99.90;;;22.00;100.00;95504.00;2323444;56;34092;-53
2021/07/09 14:14:38;;;;;;;2.75;1.83;;;21.50;99.90;;;21.48;100.00;95512.00;2325179;57;26946;-54
2021/07/09 14:17:24;;;;;;;4.30;1.90;;;21.60;99.90;;;21.99;100.00;95513.00;2137935;57;26765;-52
2021/07/09 14:20:12;;;;;;;3.42;1.87;;;21.10;99.90;;;21.29;100.00;95515.00;2138871;57;26676;-51
2021/07/09 14:22:59;;;;;;;2.87;1.58;;;20.90;99.90;;;21.05;100.00;95514.00;2346538;57;27074;-51
2021/07/09 14:25:46;;;;;;;5.07;1.62;;;20.70;99.90;;;20.94;100.00;95507.00;2128706;57;27052;-51
2021/07/09 14:28:32;;;;;;;2.12;1.67;;;20.60;99.90;;;20.80;100.00;95511.00;2129929;57;26178;-53
2021/07/09 14:31:19;;;;;;;1.87;1.67;;;20.70;99.90;;;21.06;100.00;95503.00;2133052;57;26714;-52
2021/07/09 14:37:02;;;;;;;2.45;1.62;;;20.70;99.90;;;21.20;100.00;95497.00;2476003;53;34361;-52
2021/07/09 14:39:54;;;;;;;1.87;1.50;;;20.90;99.90;;;21.42;100.00;95494.00;2232552;54;27273;-51